メインページ
METAR-TAF:

METAR-TAF

空港 :

シント・マールテン, オランダ領アンティル

プリンセス・ジュリアナ国際空港

緯度: 18-03N, 経度: 063-07W, 海抜: 4m

現時点の気象観測

当レポートは1時間6分前の21:00(UTC)に作成
東/北東の風 13kt
気温 26°C
湿度 65%
気圧 1020 hPa
視程10km以上
高度2000ftの千切れ雲あり

METAR: TNCM 192100Z 07013KT 9999 BKN020 26/19 Q1020 A3012 NOSIG

時間: 18:06 (22:06 UTC)

予報

当レポートは3時間37分前の18:29(UTC)に作成
予報は19日の 18時(UTC)から 20日の 18時(UTC)まで有効
東/北東の風 20kt、最大30ktの突風を伴う
視程: 10km
高度2000ftの雲は散在している
19日の 2300時(UTC)から
東/北東の風 18kt
視程: 10km
高度1800ftの雲は散在している

TAF: TNCM 191829Z 1918/2018 07020G30KT P6SM SCT020 FM192300 07018KT P6SM SCT018

4,000以上の空港の気象観測と天気予報(METAR報とTAF報)

利用可能な観測所は地図上に黄色い丸と赤い丸で示す。

丸の上にカーソルを重ねると観測所名を参照できる。

次にクリックすると気象観測と天気予報を参照できる。

マップの切り替え:黒色「×」印の緑ボタンをクリックして拡大、「-」印の緑ボタンをクリックして縮小、緑色の三角印をクリックして隣りの地図に切り替え


METAR-TAF: